sensor_id;sensor_type;location;lat;lon;timestamp;pressure;altitude;pressure_sealevel;temperature;humidity
18858;BME280;9558;50.178;8.370;2023-06-14T00:02:03;97915.28;;;15.30;59.78
18858;BME280;9558;50.178;8.370;2023-06-14T00:04:51;97920.31;;;15.32;60.41
18858;BME280;9558;50.178;8.370;2023-06-14T00:07:39;97917.53;;;15.27;60.47
18858;BME280;9558;50.178;8.370;2023-06-14T00:10:30;97912.75;;;15.24;61.01
18858;BME280;9558;50.178;8.370;2023-06-14T00:13:19;97922.78;;;15.20;61.36
18858;BME280;9558;50.178;8.370;2023-06-14T00:16:05;97915.59;;;15.15;61.28
18858;BME280;9558;50.178;8.370;2023-06-14T00:18:52;97920.41;;;15.12;61.31
18858;BME280;9558;50.178;8.370;2023-06-14T00:21:40;97919.25;;;15.08;61.53
18858;BME280;9558;50.178;8.370;2023-06-14T00:24:28;97920.91;;;15.02;61.35
18858;BME280;9558;50.178;8.370;2023-06-14T00:27:15;97921.13;;;15.00;61.65
18858;BME280;9558;50.178;8.370;2023-06-14T00:30:02;97921.72;;;14.96;62.43
18858;BME280;9558;50.178;8.370;2023-06-14T00:32:49;97923.34;;;14.90;62.22
18858;BME280;9558;50.178;8.370;2023-06-14T00:35:36;97928.78;;;14.89;62.18
18858;BME280;9558;50.178;8.370;2023-06-14T00:38:25;97923.78;;;14.87;62.87
18858;BME280;9558;50.178;8.370;2023-06-14T00:41:11;97927.59;;;14.84;62.87
18858;BME280;9558;50.178;8.370;2023-06-14T00:43:58;97929.44;;;14.77;62.93
18858;BME280;9558;50.178;8.370;2023-06-14T00:46:45;97933.44;;;14.73;63.23
18858;BME280;9558;50.178;8.370;2023-06-14T00:49:32;97925.84;;;14.72;63.37
18858;BME280;9558;50.178;8.370;2023-06-14T00:52:19;97924.69;;;14.67;63.67
18858;BME280;9558;50.178;8.370;2023-06-14T00:55:08;97920.25;;;14.61;63.50
18858;BME280;9558;50.178;8.370;2023-06-14T00:57:55;97925.31;;;14.56;63.18
18858;BME280;9558;50.178;8.370;2023-06-14T01:00:43;97923.31;;;14.51;63.88
18858;BME280;9558;50.178;8.370;2023-06-14T01:03:29;97928.94;;;14.48;63.58
18858;BME280;9558;50.178;8.370;2023-06-14T01:06:22;97931.94;;;14.52;64.39
18858;BME280;9558;50.178;8.370;2023-06-14T01:09:18;97930.75;;;14.48;64.79
18858;BME280;9558;50.178;8.370;2023-06-14T01:12:11;97928.78;;;14.37;64.28
18858;BME280;9558;50.178;8.370;2023-06-14T01:15:00;97929.78;;;14.35;64.44
18858;BME280;9558;50.178;8.370;2023-06-14T01:17:49;97933.38;;;14.34;65.46
18858;BME280;9558;50.178;8.370;2023-06-14T01:20:37;97936.81;;;14.28;65.74
18858;BME280;9558;50.178;8.370;2023-06-14T01:23:25;97934.41;;;14.20;65.40
18858;BME280;9558;50.178;8.370;2023-06-14T01:26:19;97935.81;;;14.16;65.81
18858;BME280;9558;50.178;8.370;2023-06-14T01:29:06;97934.84;;;14.10;65.38
18858;BME280;9558;50.178;8.370;2023-06-14T01:31:53;97924.84;;;14.07;65.86
18858;BME280;9558;50.178;8.370;2023-06-14T01:34:40;97926.06;;;14.05;65.46
18858;BME280;9558;50.178;8.370;2023-06-14T01:37:28;97936.47;;;14.05;65.56
18858;BME280;9558;50.178;8.370;2023-06-14T01:40:18;97923.25;;;13.99;65.84
18858;BME280;9558;50.178;8.370;2023-06-14T01:43:06;97928.06;;;13.96;65.83
18858;BME280;9558;50.178;8.370;2023-06-14T01:45:53;97930.06;;;13.94;65.95
18858;BME280;9558;50.178;8.370;2023-06-14T01:48:41;97928.66;;;13.91;66.37
18858;BME280;9558;50.178;8.370;2023-06-14T01:51:28;97928.28;;;13.88;66.14
18858;BME280;9558;50.178;8.370;2023-06-14T01:54:14;97933.28;;;13.82;65.81
18858;BME280;9558;50.178;8.370;2023-06-14T01:57:03;97934.06;;;13.83;66.03
18858;BME280;9558;50.178;8.370;2023-06-14T01:59:50;97941.28;;;13.81;66.60
18858;BME280;9558;50.178;8.370;2023-06-14T02:02:36;97938.47;;;13.76;66.43
18858;BME280;9558;50.178;8.370;2023-06-14T02:05:24;97941.50;;;13.73;66.48
18858;BME280;9558;50.178;8.370;2023-06-14T02:08:10;97943.31;;;13.72;67.15
18858;BME280;9558;50.178;8.370;2023-06-14T02:10:57;97935.09;;;13.69;67.33
18858;BME280;9558;50.178;8.370;2023-06-14T02:13:45;97941.31;;;13.68;67.75
18858;BME280;9558;50.178;8.370;2023-06-14T02:16:32;97942.09;;;13.61;68.20
18858;BME280;9558;50.178;8.370;2023-06-14T02:19:21;97940.50;;;13.60;67.99
18858;BME280;9558;50.178;8.370;2023-06-14T02:22:08;97950.09;;;13.53;68.09
18858;BME280;9558;50.178;8.370;2023-06-14T02:24:54;97943.69;;;13.49;68.45
18858;BME280;9558;50.178;8.370;2023-06-14T02:27:41;97942.50;;;13.45;68.26
18858;BME280;9558;50.178;8.370;2023-06-14T02:30:29;97936.69;;;13.43;68.17
18858;BME280;9558;50.178;8.370;2023-06-14T02:33:16;97946.50;;;13.41;68.45
18858;BME280;9558;50.178;8.370;2023-06-14T02:36:03;97944.09;;;13.39;68.68
18858;BME280;9558;50.178;8.370;2023-06-14T02:38:50;97949.50;;;13.38;68.51
18858;BME280;9558;50.178;8.370;2023-06-14T02:41:39;97953.28;;;13.35;68.96
18858;BME280;9558;50.178;8.370;2023-06-14T02:44:26;97956.44;;;13.30;70.06
18858;BME280;9558;50.178;8.370;2023-06-14T02:47:15;97946.44;;;13.27;69.61
18858;BME280;9558;50.178;8.370;2023-06-14T02:50:02;97949.03;;;13.27;70.24
18858;BME280;9558;50.178;8.370;2023-06-14T02:52:48;97945.63;;;13.20;70.01
18858;BME280;9558;50.178;8.370;2023-06-14T02:55:35;97954.63;;;13.18;69.89
18858;BME280;9558;50.178;8.370;2023-06-14T02:58:25;97953.41;;;13.20;70.25
18858;BME280;9558;50.178;8.370;2023-06-14T03:01:11;97956.81;;;13.14;69.89
18858;BME280;9558;50.178;8.370;2023-06-14T03:04:01;97958.00;;;13.11;70.03
18858;BME280;9558;50.178;8.370;2023-06-14T03:06:48;97955.59;;;13.10;70.12
18858;BME280;9558;50.178;8.370;2023-06-14T03:09:35;97958.59;;;13.07;70.18
18858;BME280;9558;50.178;8.370;2023-06-14T03:12:23;97960.59;;;13.05;70.05
18858;BME280;9558;50.178;8.370;2023-06-14T03:15:10;97958.19;;;13.03;70.64
18858;BME280;9558;50.178;8.370;2023-06-14T03:17:58;97962.97;;;13.00;70.71
18858;BME280;9558;50.178;8.370;2023-06-14T03:20:46;97969.97;;;12.99;70.66
18858;BME280;9558;50.178;8.370;2023-06-14T03:23:33;97971.16;;;12.96;70.93
18858;BME280;9558;50.178;8.370;2023-06-14T03:26:20;97973.94;;;12.95;70.92
18858;BME280;9558;50.178;8.370;2023-06-14T03:29:07;97979.34;;;12.93;70.86
18858;BME280;9558;50.178;8.370;2023-06-14T03:31:58;97985.13;;;12.95;71.05
18858;BME280;9558;50.178;8.370;2023-06-14T03:34:45;97992.31;;;12.93;71.37
18858;BME280;9558;50.178;8.370;2023-06-14T03:37:33;97991.69;;;12.91;71.70
18858;BME280;9558;50.178;8.370;2023-06-14T03:40:20;97990.91;;;12.91;71.85
18858;BME280;9558;50.178;8.370;2023-06-14T03:43:08;97992.09;;;12.88;72.00
18858;BME280;9558;50.178;8.370;2023-06-14T03:45:55;97993.09;;;12.87;72.10
18858;BME280;9558;50.178;8.370;2023-06-14T03:48:41;97984.50;;;12.87;71.84
18858;BME280;9558;50.178;8.370;2023-06-14T03:51:28;97997.09;;;12.90;73.21
18858;BME280;9558;50.178;8.370;2023-06-14T03:54:17;97993.91;;;12.94;72.30
18858;BME280;9558;50.178;8.370;2023-06-14T03:57:04;98005.50;;;12.99;72.24
18858;BME280;9558;50.178;8.370;2023-06-14T03:59:51;98006.34;;;12.99;72.16
18858;BME280;9558;50.178;8.370;2023-06-14T04:02:38;98006.34;;;13.06;72.00
18858;BME280;9558;50.178;8.370;2023-06-14T04:05:25;98015.75;;;13.07;72.77
18858;BME280;9558;50.178;8.370;2023-06-14T04:08:12;98014.75;;;13.08;72.41
18858;BME280;9558;50.178;8.370;2023-06-14T04:11:02;98006.97;;;13.08;72.62
18858;BME280;9558;50.178;8.370;2023-06-14T04:13:48;98005.97;;;13.09;72.48
18858;BME280;9558;50.178;8.370;2023-06-14T04:16:35;98015.16;;;13.11;72.93
18858;BME280;9558;50.178;8.370;2023-06-14T04:19:22;98017.94;;;13.10;72.66
18858;BME280;9558;50.178;8.370;2023-06-14T04:22:09;98017.56;;;13.13;72.75
18858;BME280;9558;50.178;8.370;2023-06-14T04:24:56;98018.38;;;13.13;72.84
18858;BME280;9558;50.178;8.370;2023-06-14T04:27:46;98019.56;;;13.11;72.46
18858;BME280;9558;50.178;8.370;2023-06-14T04:30:32;98025.34;;;13.13;72.94
18858;BME280;9558;50.178;8.370;2023-06-14T04:33:20;98024.34;;;13.14;73.36
18858;BME280;9558;50.178;8.370;2023-06-14T04:36:09;98020.97;;;13.13;73.40
18858;BME280;9558;50.178;8.370;2023-06-14T04:38:55;98025.97;;;13.15;73.56
18858;BME280;9558;50.178;8.370;2023-06-14T04:41:42;98027.97;;;13.20;73.99
18858;BME280;9558;50.178;8.370;2023-06-14T04:44:31;98022.97;;;13.18;74.27
18858;BME280;9558;50.178;8.370;2023-06-14T04:47:17;98021.59;;;13.22;74.89
18858;BME280;9558;50.178;8.370;2023-06-14T04:50:05;98026.78;;;13.22;74.22
18858;BME280;9558;50.178;8.370;2023-06-14T04:52:52;98027.38;;;13.24;74.41
18858;BME280;9558;50.178;8.370;2023-06-14T04:55:39;98034.97;;;13.26;74.65
18858;BME280;9558;50.178;8.370;2023-06-14T04:58:30;98033.78;;;13.28;75.34
18858;BME280;9558;50.178;8.370;2023-06-14T05:01:18;98037.59;;;13.32;75.07
18858;BME280;9558;50.178;8.370;2023-06-14T05:04:06;98032.03;;;13.36;74.60
18858;BME280;9558;50.178;8.370;2023-06-14T05:06:53;98038.88;;;13.43;73.70
18858;BME280;9558;50.178;8.370;2023-06-14T05:09:40;98040.09;;;13.54;73.13
18858;BME280;9558;50.178;8.370;2023-06-14T05:12:27;98042.09;;;13.65;70.84
18858;BME280;9558;50.178;8.370;2023-06-14T05:15:14;98034.94;;;13.81;71.39
18858;BME280;9558;50.178;8.370;2023-06-14T05:18:02;98038.53;;;13.93;70.33
18858;BME280;9558;50.178;8.370;2023-06-14T05:20:49;98028.13;;;14.07;70.16
18858;BME280;9558;50.178;8.370;2023-06-14T05:23:36;98041.72;;;14.22;69.55
18858;BME280;9558;50.178;8.370;2023-06-14T05:26:23;98041.91;;;14.34;69.06
18858;BME280;9558;50.178;8.370;2023-06-14T05:29:14;98045.31;;;14.48;68.71
18858;BME280;9558;50.178;8.370;2023-06-14T05:32:00;98047.28;;;14.59;68.27
18858;BME280;9558;50.178;8.370;2023-06-14T05:34:48;98047.69;;;14.69;67.95
18858;BME280;9558;50.178;8.370;2023-06-14T05:37:35;98048.66;;;14.82;67.80
18858;BME280;9558;50.178;8.370;2023-06-14T05:40:22;98049.25;;;14.91;67.49
18858;BME280;9558;50.178;8.370;2023-06-14T05:43:09;98050.00;;;14.98;67.68
18858;BME280;9558;50.178;8.370;2023-06-14T05:45:56;98047.97;;;15.07;66.57
18858;BME280;9558;50.178;8.370;2023-06-14T05:48:42;98057.13;;;15.16;66.42
18858;BME280;9558;50.178;8.370;2023-06-14T05:51:30;98044.84;;;15.30;66.32
18858;BME280;9558;50.178;8.370;2023-06-14T05:54:17;98054.66;;;15.34;65.85
18858;BME280;9558;50.178;8.370;2023-06-14T05:57:04;98067.03;;;15.46;65.97
18858;BME280;9558;50.178;8.370;2023-06-14T05:59:51;98064.94;;;15.61;66.20
18858;BME280;9558;50.178;8.370;2023-06-14T06:02:38;98062.66;;;15.71;66.35
18858;BME280;9558;50.178;8.370;2023-06-14T06:05:25;98074.63;;;15.86;66.24
18858;BME280;9558;50.178;8.370;2023-06-14T06:08:13;98074.69;;;16.04;65.67
18858;BME280;9558;50.178;8.370;2023-06-14T06:11:02;98078.53;;;16.27;64.58
18858;BME280;9558;50.178;8.370;2023-06-14T06:13:48;98085.72;;;16.57;64.86
18858;BME280;9558;50.178;8.370;2023-06-14T06:16:36;98079.81;;;17.05;63.72
18858;BME280;9558;50.178;8.370;2023-06-14T06:19:22;98087.41;;;17.56;62.78
18858;BME280;9558;50.178;8.370;2023-06-14T06:22:09;98082.00;;;18.11;62.07
18858;BME280;9558;50.178;8.370;2023-06-14T06:24:57;98082.16;;;18.88;59.44
18858;BME280;9558;50.178;8.370;2023-06-14T06:27:44;98090.72;;;19.81;56.13
18858;BME280;9558;50.178;8.370;2023-06-14T06:30:31;98096.19;;;20.65;50.63
18858;BME280;9558;50.178;8.370;2023-06-14T06:33:18;98091.31;;;21.62;51.93
18858;BME280;9558;50.178;8.370;2023-06-14T06:36:05;98100.19;;;22.53;48.56
18858;BME280;9558;50.178;8.370;2023-06-14T06:38:52;98101.69;;;23.45;46.70
18858;BME280;9558;50.178;8.370;2023-06-14T06:41:40;98099.63;;;24.09;43.61
18858;BME280;9558;50.178;8.370;2023-06-14T06:44:27;98110.13;;;24.76;41.25
18858;BME280;9558;50.178;8.370;2023-06-14T06:47:13;98110.16;;;25.41;38.71
18858;BME280;9558;50.178;8.370;2023-06-14T06:50:00;98093.72;;;25.84;36.17
18858;BME280;9558;50.178;8.370;2023-06-14T06:52:47;98103.22;;;26.49;38.08
18858;BME280;9558;50.178;8.370;2023-06-14T06:55:34;98111.28;;;26.92;36.07
18858;BME280;9558;50.178;8.370;2023-06-14T06:58:22;98113.41;;;27.38;34.62
18858;BME280;9558;50.178;8.370;2023-06-14T07:01:09;98113.81;;;27.65;34.97
18858;BME280;9558;50.178;8.370;2023-06-14T07:03:55;98115.16;;;27.81;34.22
18858;BME280;9558;50.178;8.370;2023-06-14T07:06:42;98119.41;;;28.01;32.14
18858;BME280;9558;50.178;8.370;2023-06-14T07:09:29;98118.81;;;28.04;32.78
18858;BME280;9558;50.178;8.370;2023-06-14T07:12:16;98121.22;;;28.20;32.97
18858;BME280;9558;50.178;8.370;2023-06-14T07:15:05;98117.31;;;28.31;32.48
18858;BME280;9558;50.178;8.370;2023-06-14T07:17:53;98128.78;;;28.45;32.30
18858;BME280;9558;50.178;8.370;2023-06-14T07:20:45;98120.97;;;28.49;31.86
18858;BME280;9558;50.178;8.370;2023-06-14T07:23:32;98133.53;;;28.76;31.58
18858;BME280;9558;50.178;8.370;2023-06-14T07:26:20;98127.22;;;28.58;30.03
18858;BME280;9558;50.178;8.370;2023-06-14T07:29:07;98135.50;;;28.57;31.36
18858;BME280;9558;50.178;8.370;2023-06-14T07:31:55;98132.56;;;29.00;31.91
18858;BME280;9558;50.178;8.370;2023-06-14T07:34:41;98140.66;;;29.23;30.79
18858;BME280;9558;50.178;8.370;2023-06-14T07:37:28;98141.22;;;29.34;30.62
18858;BME280;9558;50.178;8.370;2023-06-14T07:40:16;98135.41;;;29.68;30.10
18858;BME280;9558;50.178;8.370;2023-06-14T07:43:03;98137.06;;;30.01;29.98
18858;BME280;9558;50.178;8.370;2023-06-14T07:45:50;98141.47;;;30.28;29.62
18858;BME280;9558;50.178;8.370;2023-06-14T07:48:38;98148.03;;;30.84;29.09
18858;BME280;9558;50.178;8.370;2023-06-14T07:51:24;98139.78;;;31.12;27.75
18858;BME280;9558;50.178;8.370;2023-06-14T07:54:11;98141.88;;;31.24;27.70
18858;BME280;9558;50.178;8.370;2023-06-14T07:56:58;98144.59;;;30.93;27.79
18858;BME280;9558;50.178;8.370;2023-06-14T07:59:46;98145.81;;;31.44;28.05
18858;BME280;9558;50.178;8.370;2023-06-14T08:02:32;98155.78;;;31.70;27.27
18858;BME280;9558;50.178;8.370;2023-06-14T08:05:20;98142.69;;;31.86;26.30
18858;BME280;9558;50.178;8.370;2023-06-14T08:08:07;98138.25;;;32.08;26.62
18858;BME280;9558;50.178;8.370;2023-06-14T08:10:54;98145.66;;;32.28;26.89
18858;BME280;9558;50.178;8.370;2023-06-14T08:13:41;98149.53;;;32.39;26.14
18858;BME280;9558;50.178;8.370;2023-06-14T08:16:28;98157.66;;;32.69;26.09
18858;BME280;9558;50.178;8.370;2023-06-14T08:19:15;98160.94;;;33.05;25.99
18858;BME280;9558;50.178;8.370;2023-06-14T08:22:04;98158.34;;;33.17;24.78
18858;BME280;9558;50.178;8.370;2023-06-14T08:24:51;98147.81;;;33.12;24.72
18858;BME280;9558;50.178;8.370;2023-06-14T08:27:38;98157.69;;;33.20;24.14
18858;BME280;9558;50.178;8.370;2023-06-14T08:30:25;98152.34;;;32.90;24.59
18858;BME280;9558;50.178;8.370;2023-06-14T08:33:12;98146.63;;;33.01;25.15
18858;BME280;9558;50.178;8.370;2023-06-14T08:35:58;98155.03;;;33.20;24.94
18858;BME280;9558;50.178;8.370;2023-06-14T08:38:47;98151.34;;;33.04;24.65
18858;BME280;9558;50.178;8.370;2023-06-14T08:41:34;98157.41;;;33.22;25.14
18858;BME280;9558;50.178;8.370;2023-06-14T08:44:20;98167.50;;;33.46;24.36
18858;BME280;9558;50.178;8.370;2023-06-14T08:47:07;98162.88;;;33.55;23.61
18858;BME280;9558;50.178;8.370;2023-06-14T08:49:57;98160.97;;;33.77;24.01
18858;BME280;9558;50.178;8.370;2023-06-14T08:52:45;98160.56;;;33.87;24.12
18858;BME280;9558;50.178;8.370;2023-06-14T08:55:37;98166.44;;;34.02;24.55
18858;BME280;9558;50.178;8.370;2023-06-14T08:58:25;98157.69;;;33.50;23.19
18858;BME280;9558;50.178;8.370;2023-06-14T09:01:14;98151.97;;;33.01;24.08
18858;BME280;9558;50.178;8.370;2023-06-14T09:04:03;98153.66;;;33.14;24.43
18858;BME280;9558;50.178;8.370;2023-06-14T09:06:51;98159.91;;;33.27;24.08
18858;BME280;9558;50.178;8.370;2023-06-14T09:09:39;98161.97;;;33.21;23.79
18858;BME280;9558;50.178;8.370;2023-06-14T09:12:27;98168.31;;;33.17;23.47
18858;BME280;9558;50.178;8.370;2023-06-14T09:15:15;98166.91;;;32.81;23.82
18858;BME280;9558;50.178;8.370;2023-06-14T09:18:02;98168.00;;;32.41;23.95
18858;BME280;9558;50.178;8.370;2023-06-14T09:20:49;98168.81;;;31.98;24.78
18858;BME280;9558;50.178;8.370;2023-06-14T09:23:36;98167.13;;;31.58;26.05
18858;BME280;9558;50.178;8.370;2023-06-14T09:26:23;98169.50;;;31.02;26.02
18858;BME280;9558;50.178;8.370;2023-06-14T09:29:16;98178.72;;;30.56;26.90
18858;BME280;9558;50.178;8.370;2023-06-14T09:32:03;98173.03;;;30.03;27.16
18858;BME280;9558;50.178;8.370;2023-06-14T09:34:51;98177.31;;;29.54;28.04
18858;BME280;9558;50.178;8.370;2023-06-14T09:37:38;98171.41;;;29.15;28.74
18858;BME280;9558;50.178;8.370;2023-06-14T09:40:26;98179.91;;;28.89;30.06
18858;BME280;9558;50.178;8.370;2023-06-14T09:43:13;98176.97;;;28.44;30.42
18858;BME280;9558;50.178;8.370;2023-06-14T09:46:02;98170.28;;;28.14;30.75
18858;BME280;9558;50.178;8.370;2023-06-14T09:48:50;98177.69;;;27.79;31.03
18858;BME280;9558;50.178;8.370;2023-06-14T09:51:42;98181.34;;;27.45;31.63
18858;BME280;9558;50.178;8.370;2023-06-14T09:54:30;98181.25;;;27.06;32.13
18858;BME280;9558;50.178;8.370;2023-06-14T09:57:21;98181.66;;;26.65;33.17
18858;BME280;9558;50.178;8.370;2023-06-14T10:00:10;98181.19;;;26.24;33.07
18858;BME280;9558;50.178;8.370;2023-06-14T10:03:03;98177.44;;;25.90;33.68
18858;BME280;9558;50.178;8.370;2023-06-14T10:05:52;98165.44;;;25.58;33.85
18858;BME280;9558;50.178;8.370;2023-06-14T10:08:40;98166.63;;;25.37;35.09
18858;BME280;9558;50.178;8.370;2023-06-14T10:11:27;98173.28;;;25.18;35.41
18858;BME280;9558;50.178;8.370;2023-06-14T10:14:14;98170.94;;;25.01;35.60
18858;BME280;9558;50.178;8.370;2023-06-14T10:17:06;98168.13;;;24.72;35.93
18858;BME280;9558;50.178;8.370;2023-06-14T10:19:57;98162.53;;;24.53;36.11
18858;BME280;9558;50.178;8.370;2023-06-14T10:22:52;98156.22;;;24.39;36.57
18858;BME280;9558;50.178;8.370;2023-06-14T10:25:43;98159.38;;;24.30;36.46
18858;BME280;9558;50.178;8.370;2023-06-14T10:28:30;98159.91;;;24.17;37.65
18858;BME280;9558;50.178;8.370;2023-06-14T10:31:18;98158.88;;;24.18;37.09
18858;BME280;9558;50.178;8.370;2023-06-14T10:34:06;98165.47;;;24.21;37.80
18858;BME280;9558;50.178;8.370;2023-06-14T10:37:05;98169.44;;;24.23;37.85
18858;BME280;9558;50.178;8.370;2023-06-14T10:39:52;98172.09;;;24.28;37.91
18858;BME280;9558;50.178;8.370;2023-06-14T10:42:51;98176.84;;;24.26;36.94
18858;BME280;9558;50.178;8.370;2023-06-14T10:46:16;98163.38;;;24.12;36.74
18858;BME280;9558;50.178;8.370;2023-06-14T10:49:03;98164.91;;;23.93;37.04
18858;BME280;9558;50.178;8.370;2023-06-14T10:51:51;98170.41;;;23.76;37.74
18858;BME280;9558;50.178;8.370;2023-06-14T10:54:55;98168.28;;;23.73;37.70
18858;BME280;9558;50.178;8.370;2023-06-14T10:57:43;98163.28;;;23.71;37.99
18858;BME280;9558;50.178;8.370;2023-06-14T11:00:33;98177.28;;;23.77;38.58
18858;BME280;9558;50.178;8.370;2023-06-14T11:03:48;98171.50;;;23.85;38.45
18858;BME280;9558;50.178;8.370;2023-06-14T11:06:45;98167.25;;;23.79;38.35
18858;BME280;9558;50.178;8.370;2023-06-14T11:10:00;98168.03;;;23.85;38.90
18858;BME280;9558;50.178;8.370;2023-06-14T11:12:54;98182.09;;;24.01;38.93
18858;BME280;9558;50.178;8.370;2023-06-14T11:15:44;98170.50;;;24.07;37.75
18858;BME280;9558;50.178;8.370;2023-06-14T11:18:31;98174.97;;;24.01;37.63
18858;BME280;9558;50.178;8.370;2023-06-14T11:21:18;98164.41;;;24.11;38.13
18858;BME280;9558;50.178;8.370;2023-06-14T11:24:10;98183.47;;;24.24;38.12
18858;BME280;9558;50.178;8.370;2023-06-14T11:26:58;98174.75;;;24.33;37.12
18858;BME280;9558;50.178;8.370;2023-06-14T11:29:48;98172.63;;;24.41;37.62
18858;BME280;9558;50.178;8.370;2023-06-14T11:32:35;98170.75;;;24.52;37.23
18858;BME280;9558;50.178;8.370;2023-06-14T11:35:22;98173.13;;;24.63;35.65
18858;BME280;9558;50.178;8.370;2023-06-14T11:38:10;98169.94;;;24.77;36.92
18858;BME280;9558;50.178;8.370;2023-06-14T11:40:59;98169.94;;;24.92;36.61
18858;BME280;9558;50.178;8.370;2023-06-14T11:43:47;98186.03;;;25.01;35.21
18858;BME280;9558;50.178;8.370;2023-06-14T11:46:34;98178.91;;;24.91;35.92
18858;BME280;9558;50.178;8.370;2023-06-14T11:49:21;98176.28;;;24.91;36.17
18858;BME280;9558;50.178;8.370;2023-06-14T11:52:08;98166.72;;;24.90;35.89
18858;BME280;9558;50.178;8.370;2023-06-14T11:54:56;98161.19;;;24.87;35.93
18858;BME280;9558;50.178;8.370;2023-06-14T11:57:42;98169.69;;;24.78;36.00
18858;BME280;9558;50.178;8.370;2023-06-14T12:00:31;98170.50;;;24.69;36.07
18858;BME280;9558;50.178;8.370;2023-06-14T12:03:22;98162.53;;;24.53;36.17
18858;BME280;9558;50.178;8.370;2023-06-14T12:06:10;98172.06;;;24.49;36.49
18858;BME280;9558;50.178;8.370;2023-06-14T12:08:57;98175.25;;;24.41;36.78
18858;BME280;9558;50.178;8.370;2023-06-14T12:11:43;98178.44;;;24.32;37.25
18858;BME280;9558;50.178;8.370;2023-06-14T12:14:30;98167.34;;;24.15;37.42
18858;BME280;9558;50.178;8.370;2023-06-14T12:17:19;98164.16;;;24.03;37.32
18858;BME280;9558;50.178;8.370;2023-06-14T12:20:06;98156.72;;;24.05;37.76
18858;BME280;9558;50.178;8.370;2023-06-14T12:22:57;98161.50;;;24.08;38.02
18858;BME280;9558;50.178;8.370;2023-06-14T12:25:44;98160.44;;;24.14;38.05
18858;BME280;9558;50.178;8.370;2023-06-14T12:28:31;98162.03;;;24.20;38.44
18858;BME280;9558;50.178;8.370;2023-06-14T12:31:18;98166.28;;;24.11;38.22
18858;BME280;9558;50.178;8.370;2023-06-14T12:34:07;98153.28;;;23.99;37.75
18858;BME280;9558;50.178;8.370;2023-06-14T12:36:54;98158.84;;;24.03;37.90
18858;BME280;9558;50.178;8.370;2023-06-14T12:39:41;98157.78;;;24.09;38.17
18858;BME280;9558;50.178;8.370;2023-06-14T12:42:27;98155.94;;;24.14;37.56
18858;BME280;9558;50.178;8.370;2023-06-14T12:45:14;98168.66;;;24.12;36.80
18858;BME280;9558;50.178;8.370;2023-06-14T12:48:01;98164.16;;;24.08;37.17
18858;BME280;9558;50.178;8.370;2023-06-14T12:50:49;98160.44;;;24.14;37.87
18858;BME280;9558;50.178;8.370;2023-06-14T12:53:36;98172.09;;;24.08;37.97
18858;BME280;9558;50.178;8.370;2023-06-14T12:56:23;98167.34;;;24.15;38.03
18858;BME280;9558;50.178;8.370;2023-06-14T12:59:10;98169.97;;;24.10;38.00
18858;BME280;9558;50.178;8.370;2023-06-14T13:01:57;98167.03;;;24.06;38.98
18858;BME280;9558;50.178;8.370;2023-06-14T13:04:44;98167.31;;;24.10;38.77
18858;BME280;9558;50.178;8.370;2023-06-14T13:07:32;98167.31;;;24.30;37.47
18858;BME280;9558;50.178;8.370;2023-06-14T13:10:19;98165.47;;;24.41;37.26
18858;BME280;9558;50.178;8.370;2023-06-14T13:13:06;98175.25;;;24.41;37.12
18858;BME280;9558;50.178;8.370;2023-06-14T13:15:53;98180.56;;;24.41;36.40
18858;BME280;9558;50.178;8.370;2023-06-14T13:18:40;98169.69;;;24.37;36.92
18858;BME280;9558;50.178;8.370;2023-06-14T13:21:27;98173.94;;;24.38;36.36
18858;BME280;9558;50.178;8.370;2023-06-14T13:24:15;98173.69;;;24.14;36.96
18858;BME280;9558;50.178;8.370;2023-06-14T13:27:02;98163.91;;;24.09;36.24
18858;BME280;9558;50.178;8.370;2023-06-14T13:29:49;98163.59;;;24.16;37.11
18858;BME280;9558;50.178;8.370;2023-06-14T13:32:36;98168.41;;;24.29;37.66
18858;BME280;9558;50.178;8.370;2023-06-14T13:35:23;98175.50;;;24.39;36.68
18858;BME280;9558;50.178;8.370;2023-06-14T13:38:10;98169.41;;;24.49;36.61
18858;BME280;9558;50.178;8.370;2023-06-14T13:40:58;98165.72;;;24.35;36.00
18858;BME280;9558;50.178;8.370;2023-06-14T13:43:45;98168.13;;;24.15;35.82
18858;BME280;9558;50.178;8.370;2023-06-14T13:46:32;98164.69;;;24.00;37.69
18858;BME280;9558;50.178;8.370;2023-06-14T13:49:18;98170.44;;;23.86;36.32
18858;BME280;9558;50.178;8.370;2023-06-14T13:52:06;98162.50;;;23.81;36.97
18858;BME280;9558;50.178;8.370;2023-06-14T13:54:53;98156.19;;;23.87;36.50
18858;BME280;9558;50.178;8.370;2023-06-14T13:57:41;98160.69;;;23.92;36.58
18858;BME280;9558;50.178;8.370;2023-06-14T14:00:28;98163.34;;;24.02;36.64
18858;BME280;9558;50.178;8.370;2023-06-14T14:03:15;98160.97;;;24.06;36.19
18858;BME280;9558;50.178;8.370;2023-06-14T14:06:03;98157.25;;;24.02;36.06
18858;BME280;9558;50.178;8.370;2023-06-14T14:08:51;98153.03;;;24.01;36.66
18858;BME280;9558;50.178;8.370;2023-06-14T14:11:38;98159.38;;;23.89;36.73
18858;BME280;9558;50.178;8.370;2023-06-14T14:14:27;98159.28;;;23.69;37.93
18858;BME280;9558;50.178;8.370;2023-06-14T14:17:14;98164.53;;;23.53;37.73
18858;BME280;9558;50.178;8.370;2023-06-14T14:20:01;98160.78;;;23.39;38.51
18858;BME280;9558;50.178;8.370;2023-06-14T14:22:47;98156.31;;;23.39;38.42
18858;BME280;9558;50.178;8.370;2023-06-14T14:25:34;98146.53;;;23.40;39.50
18858;BME280;9558;50.178;8.370;2023-06-14T14:28:21;98150.31;;;23.59;39.45
18858;BME280;9558;50.178;8.370;2023-06-14T14:31:09;98151.94;;;23.81;39.05
18858;BME280;9558;50.178;8.370;2023-06-14T14:33:56;98155.16;;;24.04;38.72
18858;BME280;9558;50.178;8.370;2023-06-14T14:36:43;98160.44;;;24.14;35.71
18858;BME280;9558;50.178;8.370;2023-06-14T14:39:29;98159.38;;;24.20;36.53
18858;BME280;9558;50.178;8.370;2023-06-14T14:42:16;98156.75;;;24.15;36.50
18858;BME280;9558;50.178;8.370;2023-06-14T14:45:05;98159.38;;;24.20;36.28
18858;BME280;9558;50.178;8.370;2023-06-14T14:47:53;98162.56;;;24.07;36.35
18858;BME280;9558;50.178;8.370;2023-06-14T14:50:40;98158.84;;;24.03;35.59
18858;BME280;9558;50.178;8.370;2023-06-14T14:53:26;98151.44;;;23.94;35.78
18858;BME280;9558;50.178;8.370;2023-06-14T14:56:13;98150.38;;;23.90;36.72
18858;BME280;9558;50.178;8.370;2023-06-14T14:59:00;98157.00;;;23.98;37.30
18858;BME280;9558;50.178;8.370;2023-06-14T15:01:48;98156.72;;;24.05;37.47